Mineral Faith — VRKS4 — position and weather

sailwx.info

Track history (hours):
 
Tides and Currents Weather Stations Pressure Air Temp Water Temp Dewpoint Dewpoint Depression Visibility Wind Speed Wind Dir Waves Ship Positions

Mineral Faith

Last reported at 2015-May-04 11:19 UTC. Time now 2015-May-27 03:48 UTC.
Position N 55°21' W 005°04'.
Warning: this ship's position is 22 days out of date.

Length 292 m; draft 9.1 m.

Type: Cargo ship. MMSI: 477947500.

Date/timePositionNaut miles runAvg speedWind from/ knotsBaromVisibWave heightAir tempDewpointWater temp
2015-May-04 11:19N 55°21' W 005°04'910.4
2015-May-04 10:29N 55°15' W 005°15'1011.1
2015-May-04 09:33N 55°06' W 005°22'10 9.7
2015-May-04 08:33N 54°56' W 005°26'10 9.9
2015-May-04 07:34N 54°48' W 005°18'1111.2
2015-May-04 06:33N 54°38' W 005°09'1010.2
2015-May-04 05:33N 54°28' W 005°06'1110.6
2015-May-04 04:33N 54°17' W 005°07'1110.8
2015-May-04 03:33N 54°06' W 005°08'  
2015-Apr-30 17:33N 48°25' W 006°45'18 6.0
2015-Apr-30 14:33N 48°09' W 006°55'7 6.7
2015-Apr-30 13:33N 48°02' W 006°59'  
Track history (hours):
 
Tides and Currents Weather Stations Pressure Air Temp Water Temp Dewpoint Dewpoint Depression Visibility Wind Speed Wind Dir Waves Ship Positions

Mineral Faith

Last reported at 2015-May-04 11:19 UTC. Time now 2015-May-27 03:48 UTC.
Position N 55°21' W 005°04'.
Warning: this ship's position is 22 days out of date.

Length 292 m; draft 9.1 m.

Type: Cargo ship. MMSI: 477947500.

Date/timePositionNaut miles runAvg speedWind from/ knotsBaromVisibWave heightAir tempDewpointWater temp
2015-May-04 11:19N 55°21' W 005°04'910.4
2015-May-04 10:29N 55°15' W 005°15'1011.1
2015-May-04 09:33N 55°06' W 005°22'10 9.7
2015-May-04 08:33N 54°56' W 005°26'10 9.9
2015-May-04 07:34N 54°48' W 005°18'1111.2
2015-May-04 06:33N 54°38' W 005°09'1010.2
2015-May-04 05:33N 54°28' W 005°06'1110.6
2015-May-04 04:33N 54°17' W 005°07'1110.8
2015-May-04 03:33N 54°06' W 005°08'  
2015-Apr-30 17:33N 48°25' W 006°45'18 6.0
2015-Apr-30 14:33N 48°09' W 006°55'7 6.7
2015-Apr-30 13:33N 48°02' W 006°59'  

Dump ship's entire track history